createdAt,value
2018-08-13T00:00:37.552Z,821.00
2018-08-13T00:01:38.338Z,821.00
2018-08-13T00:02:39.098Z,821.00
2018-08-13T00:03:39.869Z,820.00
2018-08-13T00:04:40.644Z,821.00
2018-08-13T00:05:41.438Z,821.00
2018-08-13T00:06:42.213Z,821.00
2018-08-13T00:07:42.989Z,822.00
2018-08-13T00:08:43.762Z,823.00
2018-08-13T00:09:44.535Z,818.00
2018-08-13T00:10:45.342Z,820.00
2018-08-13T00:11:46.115Z,821.00
2018-08-13T00:12:46.888Z,819.00
2018-08-13T00:13:47.658Z,819.00
2018-08-13T00:14:48.431Z,821.00
2018-08-13T00:15:49.228Z,818.00
2018-08-13T00:16:50.109Z,822.00
2018-08-13T00:17:50.179Z,821.00
2018-08-13T00:18:52.509Z,821.00
2018-08-13T00:19:58.499Z,825.00
2018-08-13T00:20:59.293Z,823.00
2018-08-13T00:22:00.063Z,822.00
2018-08-13T00:23:00.833Z,822.00
2018-08-13T00:24:01.604Z,821.00
2018-08-13T00:25:02.379Z,820.00
2018-08-13T00:26:03.176Z,821.00
2018-08-13T00:27:03.944Z,821.00
2018-08-13T00:28:04.809Z,823.00
2018-08-13T00:29:04.514Z,824.00
2018-08-13T00:30:06.282Z,820.00
2018-08-13T00:31:07.084Z,821.00
2018-08-13T00:32:07.857Z,822.00
2018-08-13T00:33:08.643Z,821.00
2018-08-13T00:34:09.416Z,823.00
2018-08-13T00:35:10.186Z,821.00
2018-08-13T00:36:10.983Z,820.00
2018-08-13T00:37:11.753Z,822.00
2018-08-13T00:38:12.526Z,821.00
2018-08-13T00:39:13.304Z,820.00
2018-08-13T00:40:14.067Z,816.00
2018-08-13T00:41:14.879Z,820.00
2018-08-13T00:42:15.637Z,821.00
2018-08-13T00:43:16.408Z,821.00
2018-08-13T00:44:17.183Z,821.00
2018-08-13T00:45:17.957Z,822.00
2018-08-13T00:46:18.789Z,821.00
2018-08-13T00:47:19.566Z,822.00
2018-08-13T00:48:20.329Z,819.00
2018-08-13T00:49:22.102Z,821.00
2018-08-13T00:50:21.879Z,824.00
2018-08-13T00:51:22.672Z,823.00
2018-08-13T00:52:23.437Z,823.00
2018-08-13T00:53:24.212Z,821.00
2018-08-13T00:54:24.987Z,822.00
2018-08-13T00:55:25.763Z,821.00
2018-08-13T00:56:26.578Z,822.00
2018-08-13T00:57:27.332Z,823.00
2018-08-13T00:58:28.103Z,822.00
2018-08-13T00:59:28.885Z,823.00
2018-08-13T01:00:29.654Z,821.00
2018-08-13T01:01:30.459Z,822.00
2018-08-13T01:02:31.234Z,826.00
2018-08-13T01:03:32.007Z,825.00
2018-08-13T01:04:33.775Z,825.00
2018-08-13T01:05:33.552Z,828.00
2018-08-13T01:06:34.349Z,824.00
2018-08-13T01:07:35.121Z,829.00
2018-08-13T01:08:35.891Z,825.00
2018-08-13T01:09:36.658Z,824.00
2018-08-13T01:10:37.434Z,823.00
2018-08-13T01:11:38.227Z,826.00
2018-08-13T01:12:38.999Z,826.00
2018-08-13T01:13:39.775Z,825.00
2018-08-13T01:14:40.549Z,823.00
2018-08-13T01:15:41.325Z,822.00
2018-08-13T01:16:42.115Z,823.00
2018-08-13T01:17:42.885Z,823.00
2018-08-13T01:18:43.658Z,823.00
2018-08-13T01:19:44.429Z,826.00
2018-08-13T01:20:45.208Z,822.00
2018-08-13T01:21:46.011Z,825.00
2018-08-13T01:22:46.782Z,825.00
2018-08-13T01:23:47.561Z,825.00
2018-08-13T01:24:48.343Z,826.00
2018-08-13T01:25:49.114Z,825.00
2018-08-13T01:26:49.920Z,824.00
2018-08-13T01:27:50.685Z,825.00
2018-08-13T01:28:51.456Z,826.00
2018-08-13T01:29:52.236Z,825.00
2018-08-13T01:30:53.008Z,825.00
2018-08-13T01:31:53.810Z,825.00
2018-08-13T01:32:54.585Z,826.00
2018-08-13T01:33:55.364Z,825.00
2018-08-13T01:34:56.136Z,825.00
2018-08-13T01:35:56.914Z,825.00
2018-08-13T01:36:57.712Z,825.00
2018-08-13T01:37:58.488Z,826.00
2018-08-13T01:38:59.258Z,824.00
2018-08-13T01:40:00.031Z,821.00
2018-08-13T01:41:00.807Z,823.00
2018-08-13T01:42:01.611Z,822.00
2018-08-13T01:43:02.385Z,825.00
2018-08-13T01:44:03.160Z,822.00
2018-08-13T01:45:03.935Z,823.00
2018-08-13T01:46:04.714Z,823.00
2018-08-13T01:47:05.506Z,823.00
2018-08-13T01:48:06.281Z,824.00
2018-08-13T01:49:07.050Z,822.00
2018-08-13T01:50:07.825Z,824.00
2018-08-13T01:51:08.603Z,822.00
2018-08-13T01:52:09.393Z,822.00
2018-08-13T01:53:10.169Z,824.00
2018-08-13T01:54:10.944Z,821.00
2018-08-13T01:55:11.717Z,823.00
2018-08-13T01:56:11.503Z,823.00
2018-08-13T01:57:13.290Z,822.00
2018-08-13T01:58:14.062Z,824.00
2018-08-13T01:59:14.838Z,824.00
2018-08-13T02:00:15.606Z,821.00
2018-08-13T02:01:16.414Z,823.00
2018-08-13T02:02:17.184Z,824.00
2018-08-13T02:03:17.955Z,825.00
2018-08-13T02:04:18.726Z,824.00
2018-08-13T02:05:19.504Z,825.00
2018-08-13T02:06:20.273Z,825.00
2018-08-13T02:07:21.079Z,825.00
2018-08-13T02:08:22.255Z,825.00
2018-08-13T02:09:22.451Z,826.00
2018-08-13T02:10:21.632Z,826.00
2018-08-13T02:11:21.812Z,828.00
2018-08-13T02:14:37.731Z,842.00
2018-08-13T02:15:38.501Z,830.00
2018-08-13T02:16:39.271Z,828.00
2018-08-13T02:17:40.050Z,826.00
2018-08-13T02:18:40.844Z,828.00
2018-08-13T02:19:41.616Z,825.00
2018-08-13T02:20:42.389Z,826.00
2018-08-13T02:21:43.159Z,825.00
2018-08-13T02:22:43.942Z,825.00
2018-08-13T02:23:44.749Z,825.00
2018-08-13T02:24:44.502Z,826.00
2018-08-13T02:25:46.274Z,825.00
2018-08-13T02:26:47.051Z,828.00
2018-08-13T02:27:47.824Z,829.00
2018-08-13T02:28:48.625Z,830.00
2018-08-13T02:29:49.394Z,829.00
2018-08-13T02:30:50.169Z,829.00
2018-08-13T02:31:50.942Z,829.00
2018-08-13T02:32:51.713Z,826.00
2018-08-13T02:33:52.517Z,829.00
2018-08-13T02:34:53.280Z,822.00
2018-08-13T02:35:53.055Z,830.00
2018-08-13T02:36:54.825Z,825.00
2018-08-13T02:37:55.593Z,828.00
2018-08-13T02:38:56.393Z,825.00
2018-08-13T02:39:57.166Z,828.00
2018-08-13T02:40:57.932Z,830.00
2018-08-13T02:41:58.704Z,832.00
2018-08-13T02:42:59.475Z,829.00
2018-08-13T02:44:00.286Z,830.00
2018-08-13T02:45:01.070Z,830.00
2018-08-13T02:46:01.828Z,826.00
2018-08-13T02:47:02.596Z,828.00
2018-08-13T02:48:03.378Z,825.00
2018-08-13T02:49:04.167Z,828.00
2018-08-13T02:50:04.932Z,828.00
2018-08-13T02:51:05.704Z,830.00
2018-08-13T02:52:06.476Z,828.00
2018-08-13T02:53:07.254Z,830.00
2018-08-13T02:54:08.059Z,828.00
2018-08-13T02:55:08.833Z,821.00
2018-08-13T02:56:09.601Z,831.00
2018-08-13T02:57:10.372Z,826.00
2018-08-13T02:58:11.212Z,831.00
2018-08-13T02:59:10.952Z,828.00
2018-08-13T03:00:12.726Z,826.00
2018-08-13T03:01:13.495Z,825.00
2018-08-13T03:02:14.274Z,826.00
2018-08-13T03:03:15.045Z,826.00
2018-08-13T03:04:15.843Z,825.00
2018-08-13T03:05:16.613Z,828.00
2018-08-13T03:06:17.393Z,829.00
2018-08-13T03:07:18.167Z,831.00
2018-08-13T03:08:18.944Z,828.00
2018-08-13T03:09:19.740Z,825.00
2018-08-13T03:10:20.520Z,826.00
2018-08-13T03:11:21.289Z,829.00
2018-08-13T03:12:22.064Z,825.00
2018-08-13T03:13:22.836Z,826.00
2018-08-13T03:14:23.637Z,824.00
2018-08-13T03:15:24.417Z,823.00
2018-08-13T03:16:25.189Z,828.00
2018-08-13T03:17:24.962Z,825.00
2018-08-13T03:18:26.735Z,825.00
2018-08-13T03:19:27.534Z,823.00
2018-08-13T03:20:28.302Z,826.00
2018-08-13T03:21:29.078Z,825.00
2018-08-13T03:22:29.857Z,829.00
2018-08-13T03:23:30.632Z,828.00
2018-08-13T03:24:30.459Z,830.00
2018-08-13T03:25:31.204Z,830.00
2018-08-13T03:26:32.977Z,831.00
2018-08-13T03:27:33.752Z,833.00
2018-08-13T03:28:34.523Z,832.00
2018-08-13T03:29:35.326Z,831.00
2018-08-13T03:30:36.106Z,832.00
2018-08-13T03:31:36.874Z,830.00
2018-08-13T03:32:37.649Z,831.00
2018-08-13T03:33:38.475Z,830.00
2018-08-13T03:34:38.232Z,830.00
2018-08-13T03:35:40.003Z,832.00
2018-08-13T03:36:40.778Z,833.00
2018-08-13T03:37:41.551Z,833.00
2018-08-13T03:38:42.327Z,834.00
2018-08-13T03:39:43.127Z,834.00
2018-08-13T03:40:43.901Z,835.00
2018-08-13T03:41:44.675Z,831.00
2018-08-13T03:42:45.452Z,829.00
2018-08-13T03:43:46.223Z,831.00
2018-08-13T03:44:47.030Z,831.00
2018-08-13T03:45:46.806Z,831.00
2018-08-13T03:46:48.577Z,828.00
2018-08-13T03:47:49.347Z,829.00
2018-08-13T03:48:50.145Z,831.00
2018-08-13T03:49:50.932Z,834.00
2018-08-13T03:50:51.704Z,834.00
2018-08-13T03:51:52.481Z,832.00
2018-08-13T03:52:53.253Z,829.00
2018-08-13T03:53:54.108Z,830.00
2018-08-13T03:54:53.836Z,831.00
2018-08-13T03:55:55.606Z,832.00
2018-08-13T03:56:56.380Z,832.00
2018-08-13T03:57:57.154Z,831.00
2018-08-13T03:58:57.933Z,831.00
2018-08-13T03:59:58.726Z,831.00
2018-08-13T04:00:59.507Z,831.00
2018-08-13T04:02:00.279Z,831.00
2018-08-13T04:03:01.057Z,831.00
2018-08-13T04:04:01.834Z,830.00
2018-08-13T04:05:02.635Z,829.00
2018-08-13T04:06:03.404Z,831.00
2018-08-13T04:07:04.180Z,830.00
2018-08-13T04:08:04.951Z,831.00
2018-08-13T04:09:07.558Z,832.00
2018-08-13T04:10:06.803Z,831.00
2018-08-13T04:11:13.901Z,834.00
2018-08-13T04:12:13.718Z,831.00
2018-08-13T04:13:14.442Z,829.00
2018-08-13T04:14:16.214Z,830.00
2018-08-13T04:15:17.016Z,826.00
2018-08-13T04:16:17.787Z,831.00
2018-08-13T04:17:18.565Z,826.00
2018-08-13T04:18:19.333Z,826.00
2018-08-13T04:19:20.108Z,831.00
2018-08-13T04:20:20.905Z,832.00
2018-08-13T04:21:21.681Z,834.00
2018-08-13T04:22:22.456Z,833.00
2018-08-13T04:23:23.226Z,831.00
2018-08-13T04:24:24.000Z,829.00
2018-08-13T04:25:24.840Z,830.00
2018-08-13T04:26:24.573Z,832.00
2018-08-13T04:27:26.352Z,832.00
2018-08-13T04:28:27.128Z,831.00
2018-08-13T04:29:27.905Z,831.00
2018-08-13T04:30:28.697Z,831.00
2018-08-13T04:31:29.472Z,824.00
2018-08-13T04:32:30.251Z,832.00
2018-08-13T04:33:31.020Z,832.00
2018-08-13T04:34:31.794Z,832.00
2018-08-13T04:35:32.607Z,831.00
2018-08-13T04:36:33.377Z,833.00
2018-08-13T04:37:34.145Z,832.00
2018-08-13T04:38:34.925Z,832.00
2018-08-13T04:39:35.690Z,831.00
2018-08-13T04:40:36.493Z,831.00
2018-08-13T04:41:37.266Z,832.00
2018-08-13T04:42:38.041Z,830.00
2018-08-13T04:43:38.818Z,830.00
2018-08-13T04:44:39.584Z,831.00
2018-08-13T04:45:40.406Z,831.00
2018-08-13T04:46:41.173Z,832.00
2018-08-13T04:47:41.952Z,829.00
2018-08-13T04:48:42.718Z,833.00
2018-08-13T04:49:43.497Z,835.00
2018-08-13T04:50:44.291Z,835.00
2018-08-13T04:51:45.068Z,828.00
2018-08-13T04:52:45.836Z,832.00
2018-08-13T04:53:46.609Z,829.00
2018-08-13T04:54:47.386Z,830.00
2018-08-13T04:55:48.184Z,828.00
2018-08-13T04:56:48.963Z,830.00
2018-08-13T04:57:49.736Z,830.00
2018-08-13T04:58:50.514Z,831.00
2018-08-13T04:59:50.287Z,828.00
2018-08-13T05:00:52.086Z,830.00
2018-08-13T05:01:52.884Z,829.00
2018-08-13T05:02:52.634Z,828.00
2018-08-13T05:03:54.411Z,829.00
2018-08-13T05:04:55.185Z,828.00
2018-08-13T05:05:55.987Z,826.00
2018-08-13T05:06:56.760Z,828.00
2018-08-13T05:07:57.535Z,830.00
2018-08-13T05:08:58.314Z,829.00
2018-08-13T05:09:59.083Z,828.00
2018-08-13T05:10:59.892Z,829.00
2018-08-13T05:12:00.663Z,826.00
2018-08-13T05:13:01.442Z,831.00
2018-08-13T05:14:02.213Z,828.00
2018-08-13T05:15:02.993Z,832.00
2018-08-13T05:16:03.791Z,830.00
2018-08-13T05:17:04.568Z,830.00
2018-08-13T05:18:05.340Z,830.00
2018-08-13T05:19:06.201Z,831.00
2018-08-13T05:20:05.894Z,831.00
2018-08-13T05:21:06.738Z,829.00
2018-08-13T05:22:07.471Z,830.00
2018-08-13T05:23:09.241Z,829.00
2018-08-13T05:24:10.037Z,831.00
2018-08-13T05:25:10.785Z,831.00
2018-08-13T05:26:11.595Z,833.00
2018-08-13T05:27:12.437Z,833.00
2018-08-13T05:28:12.158Z,834.00
2018-08-13T05:29:13.916Z,841.00
2018-08-13T05:30:14.689Z,844.00
2018-08-13T05:31:14.493Z,844.00
2018-08-13T05:32:16.265Z,847.00
2018-08-13T05:33:17.041Z,846.00
2018-08-13T05:34:17.812Z,846.00
2018-08-13T05:35:18.589Z,845.00
2018-08-13T05:36:19.393Z,844.00
2018-08-13T05:37:20.160Z,841.00
2018-08-13T05:38:20.968Z,837.00
2018-08-13T05:39:20.709Z,836.00
2018-08-13T05:40:22.481Z,835.00
2018-08-13T05:41:23.282Z,834.00
2018-08-13T05:42:24.054Z,835.00
2018-08-13T05:43:24.832Z,834.00
2018-08-13T05:44:25.600Z,833.00
2018-08-13T05:45:26.374Z,834.00
2018-08-13T05:46:27.172Z,832.00
2018-08-13T05:47:27.946Z,832.00
2018-08-13T05:48:28.719Z,832.00
2018-08-13T05:49:29.495Z,832.00
2018-08-13T05:50:30.269Z,832.00
2018-08-13T05:51:31.071Z,828.00
2018-08-13T05:52:31.843Z,831.00
2018-08-13T05:53:32.614Z,832.00
2018-08-13T05:54:33.388Z,831.00
2018-08-13T05:55:34.162Z,830.00
2018-08-13T05:56:34.973Z,829.00
2018-08-13T05:57:35.743Z,830.00
2018-08-13T05:58:35.519Z,830.00
2018-08-13T05:59:37.295Z,830.00
2018-08-13T06:00:38.082Z,829.00
2018-08-13T06:01:38.867Z,830.00
2018-08-13T06:02:39.643Z,830.00
2018-08-13T06:03:40.416Z,832.00
2018-08-13T06:04:41.190Z,831.00
2018-08-13T06:05:41.963Z,831.00
2018-08-13T06:06:42.769Z,831.00
2018-08-13T06:07:43.540Z,831.00
2018-08-13T06:08:46.172Z,829.00
2018-08-13T06:09:55.966Z,831.00
2018-08-13T06:10:54.745Z,831.00
2018-08-13T06:11:56.539Z,828.00
2018-08-13T06:12:57.315Z,829.00
2018-08-13T06:13:58.087Z,826.00
2018-08-13T06:14:58.860Z,828.00
2018-08-13T06:15:59.632Z,826.00
2018-08-13T06:17:00.439Z,826.00
2018-08-13T06:18:01.303Z,829.00
2018-08-13T06:19:00.993Z,826.00
2018-08-13T06:20:02.769Z,828.00
2018-08-13T06:21:03.550Z,826.00
2018-08-13T06:22:04.347Z,826.00
2018-08-13T06:23:05.123Z,829.00
2018-08-13T06:24:05.937Z,828.00
2018-08-13T06:25:05.671Z,829.00
2018-08-13T06:26:07.445Z,828.00
2018-08-13T06:27:08.243Z,828.00
2018-08-13T06:28:09.043Z,828.00
2018-08-13T06:29:08.790Z,828.00
2018-08-13T06:30:09.681Z,826.00
2018-08-13T06:31:10.342Z,826.00
2018-08-13T06:32:12.142Z,830.00
2018-08-13T06:33:12.909Z,833.00
2018-08-13T06:34:13.682Z,836.00
2018-08-13T06:35:14.458Z,834.00
2018-08-13T06:36:15.227Z,833.00
2018-08-13T06:37:16.031Z,835.00
2018-08-13T06:38:15.813Z,835.00
2018-08-13T06:39:17.583Z,833.00
2018-08-13T06:40:18.356Z,833.00
2018-08-13T06:41:19.130Z,833.00
2018-08-13T06:42:19.929Z,834.00
2018-08-13T06:43:20.707Z,841.00
2018-08-13T06:44:21.501Z,842.00
2018-08-13T06:45:21.251Z,842.00
2018-08-13T06:46:23.024Z,843.00
2018-08-13T06:47:23.827Z,843.00
2018-08-13T06:48:24.608Z,843.00
2018-08-13T06:49:25.401Z,841.00
2018-08-13T06:50:26.153Z,841.00
2018-08-13T06:51:26.922Z,840.00
2018-08-13T06:52:26.726Z,837.00
2018-08-13T06:53:28.501Z,836.00
2018-08-13T06:54:29.277Z,834.00
2018-08-13T06:55:30.050Z,841.00
2018-08-13T06:56:30.827Z,838.00
2018-08-13T06:57:31.625Z,840.00
2018-08-13T06:58:32.402Z,841.00
2018-08-13T06:59:33.177Z,840.00
2018-08-13T07:00:33.951Z,843.00
2018-08-13T07:01:34.743Z,841.00
2018-08-13T07:02:35.526Z,836.00
2018-08-13T07:03:36.312Z,837.00
2018-08-13T07:04:37.077Z,836.00
2018-08-13T07:05:37.860Z,841.00
2018-08-13T07:06:38.630Z,836.00
2018-08-13T07:07:39.427Z,840.00
2018-08-13T07:08:40.203Z,840.00
2018-08-13T07:09:40.979Z,840.00
2018-08-13T07:10:41.752Z,841.00
2018-08-13T07:11:42.523Z,841.00
2018-08-13T07:12:44.277Z,841.00
2018-08-13T07:13:44.055Z,841.00
2018-08-13T07:14:44.823Z,837.00
2018-08-13T07:15:45.634Z,840.00
2018-08-13T07:16:45.384Z,842.00
2018-08-13T07:17:47.184Z,838.00
2018-08-13T07:18:47.951Z,840.00
2018-08-13T07:19:48.725Z,833.00
2018-08-13T07:20:49.500Z,832.00
2018-08-13T07:21:50.273Z,832.00
2018-08-13T07:22:51.079Z,833.00
2018-08-13T07:23:51.852Z,834.00
2018-08-13T07:24:52.627Z,830.00
2018-08-13T07:25:53.399Z,831.00
2018-08-13T07:26:54.178Z,829.00
2018-08-13T07:27:55.055Z,831.00
2018-08-13T07:28:54.748Z,830.00
2018-08-13T07:29:56.521Z,825.00
2018-08-13T07:30:57.297Z,829.00
2018-08-13T07:31:58.071Z,829.00
2018-08-13T07:32:58.881Z,830.00
2018-08-13T07:33:59.654Z,830.00
2018-08-13T07:35:00.426Z,830.00
2018-08-13T07:36:01.202Z,830.00
2018-08-13T07:37:01.974Z,831.00
2018-08-13T07:38:02.781Z,828.00
2018-08-13T07:39:03.651Z,828.00
2018-08-13T07:40:03.325Z,828.00
2018-08-13T07:41:05.104Z,831.00
2018-08-13T07:42:05.883Z,832.00
2018-08-13T07:43:06.680Z,828.00
2018-08-13T07:44:07.454Z,828.00
2018-08-13T07:45:08.229Z,825.00
2018-08-13T07:46:09.005Z,826.00
2018-08-13T07:47:09.780Z,828.00
2018-08-13T07:48:10.578Z,826.00
2018-08-13T07:49:11.351Z,826.00
2018-08-13T07:50:12.125Z,824.00
2018-08-13T07:51:12.907Z,826.00
2018-08-13T07:52:13.684Z,825.00
2018-08-13T07:53:14.482Z,824.00
2018-08-13T07:54:15.259Z,825.00
2018-08-13T07:55:16.030Z,826.00
2018-08-13T07:56:16.809Z,824.00
2018-08-13T07:57:17.578Z,825.00
2018-08-13T07:58:18.377Z,824.00
2018-08-13T07:59:19.151Z,824.00
2018-08-13T08:00:19.925Z,824.00
2018-08-13T08:01:20.701Z,824.00
2018-08-13T08:02:21.488Z,823.00
2018-08-13T08:03:22.289Z,823.00
2018-08-13T08:04:23.060Z,823.00
2018-08-13T08:05:23.835Z,826.00
2018-08-13T08:06:24.609Z,830.00
2018-08-13T08:07:26.806Z,830.00
2018-08-13T08:08:26.045Z,829.00
2018-08-13T08:11:25.384Z,830.00
2018-08-13T08:12:26.157Z,826.00
2018-08-13T08:13:26.956Z,825.00
2018-08-13T08:14:27.729Z,828.00
2018-08-13T08:15:28.508Z,826.00
2018-08-13T08:16:29.281Z,831.00
2018-08-13T08:17:30.058Z,830.00
2018-08-13T08:18:30.856Z,830.00
2018-08-13T08:19:31.626Z,829.00
2018-08-13T08:20:32.399Z,829.00
2018-08-13T08:21:33.187Z,829.00
2018-08-13T08:22:33.955Z,826.00
2018-08-13T08:23:34.756Z,826.00
2018-08-13T08:24:35.533Z,824.00
2018-08-13T08:25:36.304Z,825.00
2018-08-13T08:26:37.088Z,825.00
2018-08-13T08:27:37.857Z,824.00
2018-08-13T08:28:38.657Z,822.00
2018-08-13T08:29:39.432Z,823.00
2018-08-13T08:30:40.208Z,823.00
2018-08-13T08:31:40.979Z,819.00
2018-08-13T08:32:41.758Z,824.00
2018-08-13T08:33:42.563Z,822.00
2018-08-13T08:34:43.381Z,823.00
2018-08-13T08:35:43.108Z,823.00
2018-08-13T08:36:44.880Z,822.00
2018-08-13T08:37:45.660Z,821.00
2018-08-13T08:38:46.458Z,821.00
2018-08-13T08:39:47.233Z,823.00
2018-08-13T08:40:48.024Z,822.00
2018-08-13T08:41:48.779Z,822.00
2018-08-13T08:42:49.553Z,822.00
2018-08-13T08:43:50.361Z,821.00
2018-08-13T08:44:51.136Z,821.00
2018-08-13T08:45:51.946Z,822.00
2018-08-13T08:46:51.679Z,822.00
2018-08-13T08:47:53.454Z,821.00
2018-08-13T08:48:54.259Z,824.00
2018-08-13T08:49:55.036Z,821.00
2018-08-13T08:50:55.807Z,821.00
2018-08-13T08:51:56.588Z,817.00
2018-08-13T08:52:57.357Z,821.00
2018-08-13T08:53:58.168Z,820.00
2018-08-13T08:54:58.938Z,821.00
2018-08-13T08:55:59.715Z,820.00
2018-08-13T08:57:00.483Z,820.00
2018-08-13T08:58:01.272Z,821.00
2018-08-13T08:59:02.055Z,821.00
2018-08-13T09:00:02.831Z,822.00
2018-08-13T09:01:03.606Z,821.00
2018-08-13T09:02:04.383Z,826.00
2018-08-13T09:03:05.156Z,823.00
2018-08-13T09:04:05.953Z,822.00
2018-08-13T09:05:06.726Z,824.00
2018-08-13T09:06:07.505Z,824.00
2018-08-13T09:07:08.271Z,823.00
2018-08-13T09:08:09.041Z,822.00
2018-08-13T09:09:09.842Z,822.00
2018-08-13T09:10:10.614Z,826.00
2018-08-13T09:11:11.388Z,822.00
2018-08-13T09:12:12.161Z,821.00
2018-08-13T09:13:12.940Z,822.00
2018-08-13T09:14:13.795Z,821.00
2018-08-13T09:15:13.518Z,824.00
2018-08-13T09:16:15.290Z,822.00
2018-08-13T09:17:16.062Z,825.00
2018-08-13T09:18:16.845Z,822.00
2018-08-13T09:19:17.638Z,823.00
2018-08-13T09:20:18.414Z,822.00
2018-08-13T09:21:19.185Z,821.00
2018-08-13T09:22:19.963Z,822.00
2018-08-13T09:23:20.739Z,822.00
2018-08-13T09:24:21.539Z,820.00
2018-08-13T09:25:22.315Z,820.00
2018-08-13T09:26:23.087Z,819.00
2018-08-13T09:27:23.864Z,818.00
2018-08-13T09:28:24.643Z,822.00
2018-08-13T09:29:25.440Z,819.00
2018-08-13T09:30:26.214Z,817.00
2018-08-13T09:31:26.988Z,816.00
2018-08-13T09:32:27.764Z,817.00
2018-08-13T09:33:28.536Z,817.00
2018-08-13T09:34:29.336Z,817.00
2018-08-13T09:35:30.113Z,816.00
2018-08-13T09:36:30.897Z,814.00
2018-08-13T09:37:31.662Z,816.00
2018-08-13T09:38:32.434Z,814.00
2018-08-13T09:39:33.233Z,814.00
2018-08-13T09:40:35.008Z,813.00
2018-08-13T09:41:34.780Z,821.00
2018-08-13T09:42:35.549Z,812.00
2018-08-13T09:43:36.411Z,812.00
2018-08-13T09:44:36.140Z,810.00
2018-08-13T09:45:37.918Z,811.00
2018-08-13T09:46:38.691Z,814.00
2018-08-13T09:47:39.470Z,808.00
2018-08-13T09:48:40.235Z,808.00
2018-08-13T09:49:41.038Z,807.00
2018-08-13T09:50:41.812Z,809.00
2018-08-13T09:51:42.588Z,814.00
2018-08-13T09:52:43.361Z,805.00
2018-08-13T09:53:44.177Z,806.00
2018-08-13T09:54:43.939Z,804.00
2018-08-13T09:55:45.718Z,806.00
2018-08-13T09:56:46.488Z,811.00
2018-08-13T09:57:47.263Z,806.00
2018-08-13T09:58:48.035Z,805.00
2018-08-13T09:59:48.837Z,805.00
2018-08-13T10:00:49.614Z,814.00
2018-08-13T10:01:50.488Z,805.00
2018-08-13T10:02:51.646Z,805.00
2018-08-13T10:03:53.121Z,805.00
2018-08-13T10:04:51.353Z,804.00
2018-08-13T10:05:51.557Z,807.00
2018-08-13T10:08:49.466Z,812.00
2018-08-13T10:09:48.242Z,805.00
2018-08-13T10:10:49.063Z,804.00
2018-08-13T10:11:49.817Z,804.00
2018-08-13T10:12:50.588Z,802.00
2018-08-13T10:13:51.360Z,801.00
2018-08-13T10:14:52.134Z,800.00
2018-08-13T10:15:52.936Z,805.00
2018-08-13T10:16:53.892Z,806.00
2018-08-13T10:17:53.556Z,808.00
2018-08-13T10:18:54.252Z,807.00
2018-08-13T10:19:56.025Z,806.00
2018-08-13T10:20:56.822Z,805.00
2018-08-13T10:21:57.594Z,805.00
2018-08-13T10:22:58.369Z,805.00
2018-08-13T10:23:59.143Z,804.00
2018-08-13T10:24:59.920Z,802.00
2018-08-13T10:26:00.716Z,804.00
2018-08-13T10:27:01.488Z,806.00
2018-08-13T10:28:02.270Z,805.00
2018-08-13T10:29:03.034Z,808.00
2018-08-13T10:30:03.807Z,805.00
2018-08-13T10:31:04.694Z,806.00
2018-08-13T10:32:04.387Z,806.00
2018-08-13T10:33:06.162Z,805.00
2018-08-13T10:34:06.931Z,805.00
2018-08-13T10:35:07.711Z,802.00
2018-08-13T10:36:08.503Z,804.00
2018-08-13T10:37:09.277Z,805.00
2018-08-13T10:38:10.049Z,801.00
2018-08-13T10:39:10.824Z,801.00
2018-08-13T10:40:11.600Z,802.00
2018-08-13T10:41:12.396Z,801.00
2018-08-13T10:42:13.168Z,804.00
2018-08-13T10:43:13.939Z,802.00
2018-08-13T10:44:14.713Z,801.00
2018-08-13T10:45:15.486Z,805.00
2018-08-13T10:46:16.328Z,802.00
2018-08-13T10:47:16.170Z,804.00
2018-08-13T10:48:17.860Z,807.00
2018-08-13T10:49:18.636Z,800.00
2018-08-13T10:50:19.406Z,802.00
2018-08-13T10:51:20.213Z,801.00
2018-08-13T10:52:20.979Z,805.00
2018-08-13T10:53:21.752Z,806.00
2018-08-13T10:54:22.526Z,802.00
2018-08-13T10:55:23.296Z,802.00
2018-08-13T10:56:24.095Z,802.00
2018-08-13T10:57:24.869Z,802.00
2018-08-13T10:58:25.647Z,806.00
2018-08-13T10:59:26.415Z,801.00
2018-08-13T11:00:27.200Z,802.00
2018-08-13T11:01:27.990Z,804.00
2018-08-13T11:02:28.767Z,806.00
2018-08-13T11:03:29.539Z,807.00
2018-08-13T11:04:30.314Z,819.00
2018-08-13T11:05:31.085Z,817.00
2018-08-13T11:06:31.888Z,812.00
2018-08-13T11:07:32.673Z,812.00
2018-08-13T11:08:32.445Z,814.00
2018-08-13T11:09:34.221Z,806.00
2018-08-13T11:10:34.995Z,806.00
2018-08-13T11:11:35.796Z,805.00
2018-08-13T11:12:36.568Z,808.00
2018-08-13T11:13:37.342Z,809.00
2018-08-13T11:14:38.115Z,812.00
2018-08-13T11:15:38.888Z,812.00
2018-08-13T11:16:39.689Z,810.00
2018-08-13T11:17:40.463Z,812.00
2018-08-13T11:18:41.233Z,811.00
2018-08-13T11:19:42.016Z,811.00
2018-08-13T11:20:42.782Z,811.00
2018-08-13T11:21:43.651Z,812.00
2018-08-13T11:22:43.377Z,812.00
2018-08-13T11:23:45.131Z,813.00
2018-08-13T11:24:45.903Z,813.00
2018-08-13T11:25:46.676Z,813.00
2018-08-13T11:26:47.492Z,814.00
2018-08-13T11:27:48.254Z,814.00
2018-08-13T11:28:49.120Z,812.00
2018-08-13T11:29:48.816Z,825.00
2018-08-13T11:30:50.593Z,810.00
2018-08-13T11:31:51.389Z,812.00
2018-08-13T11:32:52.157Z,811.00
2018-08-13T11:33:52.940Z,809.00
2018-08-13T11:34:53.789Z,822.00
2018-08-13T11:35:53.479Z,809.00
2018-08-13T11:36:55.277Z,808.00
2018-08-13T11:37:56.050Z,807.00
2018-08-13T11:38:56.831Z,806.00
2018-08-13T11:39:57.607Z,812.00
2018-08-13T11:40:58.376Z,804.00
2018-08-13T11:41:59.177Z,805.00
2018-08-13T11:42:59.948Z,802.00
2018-08-13T11:44:00.722Z,802.00
2018-08-13T11:45:01.500Z,805.00
2018-08-13T11:46:02.282Z,802.00
2018-08-13T11:47:03.074Z,818.00
2018-08-13T11:48:03.853Z,806.00
2018-08-13T11:49:04.623Z,805.00
2018-08-13T11:50:05.402Z,805.00
2018-08-13T11:51:06.169Z,806.00
2018-08-13T11:52:06.975Z,805.00
2018-08-13T11:53:07.749Z,802.00
2018-08-13T11:54:08.524Z,802.00
2018-08-13T11:55:09.299Z,801.00
2018-08-13T11:56:10.073Z,804.00
2018-08-13T11:57:10.903Z,802.00
2018-08-13T11:58:11.646Z,801.00
2018-08-13T11:59:12.435Z,801.00
2018-08-13T12:00:13.199Z,814.00
2018-08-13T12:01:13.972Z,799.00
2018-08-13T12:02:14.773Z,801.00
2018-08-13T12:03:15.650Z,804.00
2018-08-13T12:04:15.732Z,798.00
2018-08-13T12:05:16.934Z,806.00
2018-08-13T12:06:16.150Z,798.00
2018-08-13T12:07:17.460Z,801.00
2018-08-13T12:10:10.770Z,807.00
2018-08-13T12:11:11.543Z,799.00
2018-08-13T12:12:12.314Z,800.00
2018-08-13T12:13:13.109Z,802.00
2018-08-13T12:14:13.984Z,802.00
2018-08-13T12:15:13.658Z,800.00
2018-08-13T12:16:15.435Z,799.00
2018-08-13T12:17:16.207Z,801.00
2018-08-13T12:18:17.008Z,801.00
2018-08-13T12:19:17.782Z,801.00
2018-08-13T12:20:18.562Z,807.00
2018-08-13T12:21:19.331Z,808.00
2018-08-13T12:22:20.103Z,819.00
2018-08-13T12:23:20.914Z,806.00
2018-08-13T12:24:21.681Z,805.00
2018-08-13T12:25:22.465Z,806.00
2018-08-13T12:26:23.241Z,805.00
2018-08-13T12:27:23.007Z,805.00
2018-08-13T12:28:24.844Z,805.00
2018-08-13T12:29:24.578Z,805.00
2018-08-13T12:30:26.357Z,804.00
2018-08-13T12:31:27.128Z,806.00
2018-08-13T12:32:27.905Z,812.00
2018-08-13T12:33:28.703Z,805.00
2018-08-13T12:34:30.480Z,806.00
2018-08-13T12:35:30.252Z,804.00
2018-08-13T12:36:31.025Z,805.00
2018-08-13T12:37:31.801Z,802.00
2018-08-13T12:38:32.604Z,806.00
2018-08-13T12:39:33.374Z,806.00
2018-08-13T12:40:34.146Z,805.00
2018-08-13T12:41:34.920Z,807.00
2018-08-13T12:42:35.693Z,804.00
2018-08-13T12:43:36.489Z,804.00
2018-08-13T12:44:37.262Z,806.00
2018-08-13T12:45:37.036Z,807.00
2018-08-13T12:46:38.811Z,808.00